createdAt,value
2022-09-29T00:00:08.453Z,8.80
2022-09-29T00:05:31.496Z,9.90
2022-09-29T00:10:34.350Z,11.30
2022-09-29T00:15:37.476Z,10.50
2022-09-29T00:20:40.365Z,10.40
2022-09-29T00:25:43.162Z,10.90
2022-09-29T00:30:45.966Z,8.90
2022-09-29T00:36:01.465Z,9.60
2022-09-29T00:41:06.242Z,9.10
2022-09-29T00:46:09.159Z,8.30
2022-09-29T00:51:12.534Z,9.00
2022-09-29T00:56:18.102Z,9.10
2022-09-29T01:01:27.092Z,11.10
2022-09-29T01:06:41.317Z,10.40
2022-09-29T01:11:44.225Z,10.00
2022-09-29T01:16:47.177Z,11.30
2022-09-29T01:22:08.457Z,9.60
2022-09-29T01:27:40.651Z,9.60
2022-09-29T01:33:16.218Z,9.00
2022-09-29T01:38:19.026Z,11.80
2022-09-29T01:43:32.571Z,17.90
2022-09-29T01:48:42.355Z,13.30
2022-09-29T01:53:55.845Z,12.60
2022-09-29T01:59:05.580Z,10.70
2022-09-29T02:04:15.822Z,20.70
2022-09-29T02:09:27.748Z,11.60
2022-09-29T02:14:36.945Z,11.80
2022-09-29T02:19:43.592Z,9.40
2022-09-29T02:24:46.598Z,9.80
2022-09-29T02:29:49.865Z,13.50
2022-09-29T02:34:55.089Z,13.50
2022-09-29T02:40:10.261Z,11.60
2022-09-29T02:45:37.139Z,15.80
2022-09-29T02:50:53.404Z,13.90
2022-09-29T02:55:59.115Z,12.10
2022-09-29T03:01:03.432Z,13.00
2022-09-29T03:06:07.180Z,13.20
2022-09-29T03:11:10.079Z,13.00
2022-09-29T03:16:13.096Z,15.10
2022-09-29T03:21:15.988Z,11.10
2022-09-29T03:26:18.996Z,16.40
2022-09-29T03:31:21.939Z,21.60
2022-09-29T03:36:27.569Z,29.70
2022-09-29T03:41:30.370Z,26.60
2022-09-29T03:46:33.276Z,22.50
2022-09-29T03:51:36.176Z,13.70
2022-09-29T03:56:39.544Z,10.60
2022-09-29T04:01:42.567Z,11.30
2022-09-29T04:06:45.713Z,9.20
2022-09-29T04:11:49.030Z,9.50
2022-09-29T04:16:51.931Z,11.70
2022-09-29T04:21:54.833Z,9.90
2022-09-29T04:26:57.734Z,12.60
2022-09-29T04:32:00.795Z,9.80
2022-09-29T04:37:03.950Z,11.40
2022-09-29T04:42:06.856Z,11.60
2022-09-29T04:47:09.864Z,12.00
2022-09-29T04:52:13.447Z,13.10
2022-09-29T04:57:16.282Z,13.10
2022-09-29T05:02:19.524Z,14.00
2022-09-29T05:07:22.500Z,13.70
2022-09-29T05:12:25.409Z,15.90
2022-09-29T05:17:28.211Z,13.20
2022-09-29T05:22:31.625Z,13.30
2022-09-29T05:27:35.448Z,16.20
2022-09-29T05:32:38.351Z,14.20
2022-09-29T05:37:41.155Z,18.40
2022-09-29T05:42:44.058Z,18.00
2022-09-29T05:47:47.063Z,18.50
2022-09-29T05:52:50.683Z,20.10
2022-09-29T05:57:53.600Z,17.70
2022-09-29T06:02:59.132Z,19.40
2022-09-29T06:08:04.147Z,18.40
2022-09-29T06:13:07.727Z,16.40
2022-09-29T06:18:10.528Z,17.00
2022-09-29T06:23:13.331Z,16.60
2022-09-29T06:28:16.237Z,15.60
2022-09-29T06:33:21.908Z,15.40
2022-09-29T06:38:25.728Z,13.80
2022-09-29T06:43:28.637Z,16.10
2022-09-29T06:48:32.058Z,18.10
2022-09-29T06:53:38.640Z,19.50
2022-09-29T06:58:42.258Z,16.60
2022-09-29T07:03:45.061Z,18.20
2022-09-29T07:08:47.977Z,16.20
2022-09-29T07:13:54.373Z,13.80
2022-09-29T07:18:58.073Z,12.80
2022-09-29T07:24:02.309Z,12.10
2022-09-29T07:29:05.418Z,14.70
2022-09-29T07:34:08.322Z,10.40
2022-09-29T07:39:11.326Z,10.20
2022-09-29T07:44:14.436Z,9.00
2022-09-29T07:49:18.812Z,9.20
2022-09-29T07:54:24.625Z,9.40
2022-09-29T07:59:32.471Z,9.30
2022-09-29T08:04:36.590Z,7.40
2022-09-29T08:09:41.370Z,10.70
2022-09-29T08:14:49.170Z,10.50
2022-09-29T08:19:52.070Z,17.50
2022-09-29T08:24:59.069Z,15.30
2022-09-29T08:30:02.193Z,15.20
2022-09-29T08:35:06.404Z,7.50
2022-09-29T08:40:10.499Z,8.60
2022-09-29T08:45:24.920Z,13.00
2022-09-29T08:50:43.962Z,8.20
2022-09-29T08:55:57.350Z,6.80
2022-09-29T09:01:06.659Z,7.40
2022-09-29T09:06:25.900Z,9.10
2022-09-29T09:11:45.797Z,6.90
2022-09-29T09:17:03.956Z,8.40
2022-09-29T09:22:30.202Z,6.60
2022-09-29T09:27:48.883Z,4.90
2022-09-29T09:33:01.986Z,5.40
2022-09-29T09:38:15.378Z,4.80
2022-09-29T09:43:20.696Z,10.80
2022-09-29T09:48:33.368Z,8.30
2022-09-29T09:53:43.648Z,5.30
2022-09-29T10:03:58.062Z,5.70
2022-09-29T10:09:01.146Z,6.80
2022-09-29T10:14:09.360Z,6.50
2022-09-29T10:19:12.794Z,6.90
2022-09-29T10:24:28.311Z,6.80
2022-09-29T10:29:39.099Z,7.30
2022-09-29T10:34:46.302Z,5.70
2022-09-29T10:39:49.684Z,9.30
2022-09-29T10:45:01.123Z,15.50
2022-09-29T10:50:16.420Z,13.50
2022-09-29T10:55:23.176Z,12.30
2022-09-29T11:00:26.426Z,10.70
2022-09-29T11:05:29.327Z,14.00
2022-09-29T11:10:36.225Z,17.70
2022-09-29T11:15:41.300Z,14.30
2022-09-29T11:20:48.789Z,10.50
2022-09-29T11:26:00.809Z,13.50
2022-09-29T11:31:09.755Z,21.60
2022-09-29T11:36:18.658Z,19.30
2022-09-29T11:41:56.364Z,13.70
2022-09-29T11:47:09.563Z,16.60
2022-09-29T11:52:48.428Z,16.80
2022-09-29T11:58:22.462Z,20.60
2022-09-29T12:03:37.605Z,14.40
2022-09-29T12:08:43.515Z,17.00
2022-09-29T12:13:52.229Z,14.60
2022-09-29T12:19:16.581Z,14.00
2022-09-29T12:24:30.624Z,15.90
2022-09-29T12:29:44.981Z,15.10
2022-09-29T12:35:26.390Z,13.50
2022-09-29T12:40:36.116Z,15.40
2022-09-29T12:45:51.520Z,14.60
2022-09-29T12:51:09.836Z,13.30
2022-09-29T12:56:32.341Z,12.70
2022-09-29T13:01:37.975Z,11.00
2022-09-29T13:06:59.401Z,12.30
2022-09-29T13:12:37.426Z,9.90
2022-09-29T13:17:49.861Z,10.10
2022-09-29T13:23:05.047Z,10.50
2022-09-29T13:28:32.120Z,9.40
2022-09-29T13:33:35.258Z,10.50
2022-09-29T13:38:39.571Z,8.50
2022-09-29T13:43:51.480Z,8.50
2022-09-29T13:49:02.372Z,14.10
2022-09-29T13:54:34.665Z,12.40
2022-09-29T13:59:40.697Z,12.60
2022-09-29T14:04:51.119Z,10.40
2022-09-29T14:15:03.844Z,11.20
2022-09-29T14:20:31.193Z,11.20
2022-09-29T14:25:50.659Z,13.30
2022-09-29T14:30:57.894Z,14.80
2022-09-29T14:36:00.774Z,20.10
2022-09-29T14:41:23.394Z,17.70
2022-09-29T14:47:03.000Z,13.20
2022-09-29T14:52:12.773Z,9.90
2022-09-29T14:57:35.642Z,12.20
2022-09-29T15:02:44.705Z,19.60
2022-09-29T15:07:47.698Z,22.00
2022-09-29T15:12:52.114Z,23.10
2022-09-29T15:18:04.871Z,19.30
2022-09-29T15:23:31.532Z,14.10
2022-09-29T15:28:38.425Z,12.10
2022-09-29T15:33:43.809Z,14.70
2022-09-29T15:38:47.368Z,20.90
2022-09-29T15:43:57.959Z,28.90
2022-09-29T15:54:16.061Z,20.80
2022-09-29T15:59:19.969Z,22.00
2022-09-29T16:04:23.354Z,29.00
2022-09-29T16:09:26.388Z,17.30
2022-09-29T16:14:31.235Z,21.50
2022-09-29T16:19:36.421Z,23.50
2022-09-29T16:24:55.836Z,83.10
2022-09-29T16:30:20.858Z,44.30
2022-09-29T16:35:41.891Z,36.40
2022-09-29T16:40:45.885Z,31.10
2022-09-29T16:45:51.177Z,33.20
2022-09-29T16:51:01.806Z,50.80
2022-09-29T16:56:20.527Z,40.70
2022-09-29T17:01:25.081Z,33.50
2022-09-29T17:06:29.783Z,32.70
2022-09-29T17:11:32.831Z,32.20
2022-09-29T17:16:35.740Z,27.90
2022-09-29T17:21:39.057Z,22.00
2022-09-29T17:27:05.200Z,28.30
2022-09-29T17:32:15.625Z,31.80
2022-09-29T17:37:19.714Z,30.20
2022-09-29T17:42:24.731Z,35.00
2022-09-29T17:47:29.278Z,39.20
2022-09-29T17:52:33.250Z,40.40
2022-09-29T17:57:36.290Z,44.90
2022-09-29T18:02:39.508Z,19.10
2022-09-29T18:07:42.562Z,28.00
2022-09-29T18:12:45.567Z,29.70
2022-09-29T18:17:48.578Z,25.50
2022-09-29T18:22:51.583Z,28.20
2022-09-29T18:27:55.004Z,32.40
2022-09-29T18:32:59.646Z,23.10
2022-09-29T18:38:03.367Z,33.80
2022-09-29T18:43:07.361Z,27.20
2022-09-29T18:48:14.458Z,35.10
2022-09-29T18:53:19.889Z,26.70
2022-09-29T18:58:26.359Z,32.60
2022-09-29T19:03:30.186Z,34.50
2022-09-29T19:08:33.591Z,31.80
2022-09-29T19:13:38.814Z,33.50
2022-09-29T19:18:42.233Z,31.70
2022-09-29T19:23:46.899Z,36.10
2022-09-29T19:28:49.917Z,32.00
2022-09-29T19:33:53.335Z,29.90
2022-09-29T19:38:56.244Z,74.80
2022-09-29T19:44:00.495Z,58.30
2022-09-29T19:49:04.196Z,46.90
2022-09-29T19:54:12.722Z,51.20
2022-09-29T19:59:21.902Z,49.40
2022-09-29T20:04:30.366Z,33.70
2022-09-29T20:09:33.939Z,34.40
2022-09-29T20:14:39.402Z,32.20
2022-09-29T20:19:42.480Z,30.90
2022-09-29T20:24:45.516Z,31.00
2022-09-29T20:29:48.625Z,28.80
2022-09-29T20:34:51.848Z,30.10
2022-09-29T20:39:55.048Z,37.30
2022-09-29T20:44:58.053Z,37.10
2022-09-29T20:50:00.960Z,36.00
2022-09-29T20:55:05.075Z,35.10
2022-09-29T21:00:09.861Z,33.20
2022-09-29T21:05:12.744Z,38.10
2022-09-29T21:10:15.752Z,42.80
2022-09-29T21:15:21.728Z,37.90
2022-09-29T21:20:25.139Z,41.70
2022-09-29T21:25:28.861Z,32.00
2022-09-29T21:30:32.769Z,31.00
2022-09-29T21:35:35.697Z,31.10
2022-09-29T21:40:38.598Z,26.60
2022-09-29T21:45:41.505Z,27.40
2022-09-29T21:50:44.420Z,25.60
2022-09-29T21:55:47.314Z,26.90
2022-09-29T22:00:50.216Z,26.70
2022-09-29T22:05:53.119Z,29.60
2022-09-29T22:10:56.465Z,31.70
2022-09-29T22:16:06.156Z,28.40
2022-09-29T22:21:13.411Z,25.10
2022-09-29T22:26:17.431Z,34.50
2022-09-29T22:31:20.817Z,28.20
2022-09-29T22:36:25.923Z,28.00
2022-09-29T22:41:29.620Z,25.70
2022-09-29T22:46:33.325Z,29.90
2022-09-29T22:51:36.630Z,35.40
2022-09-29T22:56:40.705Z,22.90
2022-09-29T23:01:43.782Z,27.70
2022-09-29T23:06:46.847Z,33.00
2022-09-29T23:11:49.816Z,33.70
2022-09-29T23:16:52.720Z,38.90
2022-09-29T23:21:55.625Z,37.90
2022-09-29T23:26:59.964Z,36.30
2022-09-29T23:32:02.869Z,28.50
2022-09-29T23:37:06.077Z,27.40
2022-09-29T23:42:10.309Z,32.60
2022-09-29T23:47:13.215Z,33.30
2022-09-29T23:52:16.220Z,37.40
2022-09-29T23:57:19.126Z,33.40
